sensor_id;sensor_type;location;lat;lon;timestamp;P1;durP1;ratioP1;P2;durP2;ratioP2
33154;SDS011;19511;42.682;23.332;2022-12-18T00:01:25;1127.72;;;305.48;;
33154;SDS011;19511;42.682;23.332;2022-12-18T00:03:53;6.80;;;5.53;;
33154;SDS011;19511;42.682;23.332;2022-12-18T00:06:20;5.03;;;3.78;;
33154;SDS011;19511;42.682;23.332;2022-12-18T00:08:47;210.10;;;116.65;;
33154;SDS011;19511;42.682;23.332;2022-12-18T00:11:16;25.75;;;17.17;;
33154;SDS011;19511;42.682;23.332;2022-12-18T00:13:44;65.85;;;53.42;;
33154;SDS011;19511;42.682;23.332;2022-12-18T00:16:11;1310.15;;;284.42;;
33154;SDS011;19511;42.682;23.332;2022-12-18T00:18:38;14.20;;;9.07;;
33154;SDS011;19511;42.682;23.332;2022-12-18T00:21:06;15.02;;;13.57;;
33154;SDS011;19511;42.682;23.332;2022-12-18T00:23:33;1965.78;;;407.90;;
33154;SDS011;19511;42.682;23.332;2022-12-18T00:26:00;692.70;;;216.80;;
33154;SDS011;19511;42.682;23.332;2022-12-18T00:28:26;9.02;;;5.10;;
33154;SDS011;19511;42.682;23.332;2022-12-18T00:31:07;7.82;;;5.28;;
33154;SDS011;19511;42.682;23.332;2022-12-18T00:33:35;18.70;;;16.77;;
33154;SDS011;19511;42.682;23.332;2022-12-18T00:36:01;262.48;;;128.05;;
33154;SDS011;19511;42.682;23.332;2022-12-18T00:38:31;8.32;;;7.63;;
33154;SDS011;19511;42.682;23.332;2022-12-18T00:40:57;50.28;;;45.22;;
33154;SDS011;19511;42.682;23.332;2022-12-18T00:43:22;9.40;;;5.07;;
33154;SDS011;19511;42.682;23.332;2022-12-18T00:45:48;221.73;;;107.25;;
33154;SDS011;19511;42.682;23.332;2022-12-18T00:48:13;1999.90;;;470.80;;
33154;SDS011;19511;42.682;23.332;2022-12-18T00:50:39;857.72;;;306.20;;
33154;SDS011;19511;42.682;23.332;2022-12-18T00:53:04;1999.90;;;441.77;;
33154;SDS011;19511;42.682;23.332;2022-12-18T00:55:30;1281.47;;;373.73;;
33154;SDS011;19511;42.682;23.332;2022-12-18T00:57:55;194.60;;;149.95;;
33154;SDS011;19511;42.682;23.332;2022-12-18T01:00:21;1146.10;;;248.07;;
33154;SDS011;19511;42.682;23.332;2022-12-18T01:02:46;1585.82;;;473.38;;
33154;SDS011;19511;42.682;23.332;2022-12-18T01:05:12;1973.82;;;407.63;;
33154;SDS011;19511;42.682;23.332;2022-12-18T01:07:38;1114.88;;;323.50;;
33154;SDS011;19511;42.682;23.332;2022-12-18T01:10:04;22.77;;;19.25;;
33154;SDS011;19511;42.682;23.332;2022-12-18T01:12:31;18.65;;;15.98;;
33154;SDS011;19511;42.682;23.332;2022-12-18T01:14:57;101.70;;;74.78;;
33154;SDS011;19511;42.682;23.332;2022-12-18T01:17:22;29.73;;;22.55;;
33154;SDS011;19511;42.682;23.332;2022-12-18T01:19:47;18.95;;;16.58;;
33154;SDS011;19511;42.682;23.332;2022-12-18T01:22:13;17.98;;;16.33;;
33154;SDS011;19511;42.682;23.332;2022-12-18T01:24:38;68.53;;;50.78;;
33154;SDS011;19511;42.682;23.332;2022-12-18T01:27:04;6.32;;;5.38;;
33154;SDS011;19511;42.682;23.332;2022-12-18T01:29:29;29.38;;;23.77;;
33154;SDS011;19511;42.682;23.332;2022-12-18T01:31:55;1885.97;;;516.47;;
33154;SDS011;19511;42.682;23.332;2022-12-18T01:34:21;19.35;;;12.52;;
33154;SDS011;19511;42.682;23.332;2022-12-18T01:36:47;469.58;;;271.88;;
33154;SDS011;19511;42.682;23.332;2022-12-18T01:39:13;11.25;;;8.80;;
33154;SDS011;19511;42.682;23.332;2022-12-18T01:41:39;60.72;;;55.13;;
33154;SDS011;19511;42.682;23.332;2022-12-18T01:47:23;343.88;;;167.00;;
33154;SDS011;19511;42.682;23.332;2022-12-18T01:49:53;28.52;;;16.80;;
33154;SDS011;19511;42.682;23.332;2022-12-18T01:52:20;313.60;;;205.73;;
33154;SDS011;19511;42.682;23.332;2022-12-18T01:54:47;23.50;;;19.75;;
33154;SDS011;19511;42.682;23.332;2022-12-18T01:57:15;1999.90;;;505.13;;
33154;SDS011;19511;42.682;23.332;2022-12-18T01:59:41;514.80;;;310.35;;
33154;SDS011;19511;42.682;23.332;2022-12-18T02:02:09;410.20;;;148.40;;
33154;SDS011;19511;42.682;23.332;2022-12-18T02:04:35;166.18;;;85.85;;
33154;SDS011;19511;42.682;23.332;2022-12-18T02:07:04;1999.90;;;497.05;;
33154;SDS011;19511;42.682;23.332;2022-12-18T02:09:43;89.50;;;77.70;;
33154;SDS011;19511;42.682;23.332;2022-12-18T02:12:14;41.00;;;37.08;;
33154;SDS011;19511;42.682;23.332;2022-12-18T02:14:45;408.73;;;184.40;;
33154;SDS011;19511;42.682;23.332;2022-12-18T02:17:19;280.48;;;116.53;;
33154;SDS011;19511;42.682;23.332;2022-12-18T02:20:02;33.33;;;25.02;;
33154;SDS011;19511;42.682;23.332;2022-12-18T02:28:06;26.90;;;24.73;;
33154;SDS011;19511;42.682;23.332;2022-12-18T02:30:36;739.05;;;209.27;;
33154;SDS011;19511;42.682;23.332;2022-12-18T02:33:04;1498.40;;;371.15;;
33154;SDS011;19511;42.682;23.332;2022-12-18T02:35:33;1999.90;;;509.48;;
33154;SDS011;19511;42.682;23.332;2022-12-18T02:38:00;132.73;;;80.20;;
33154;SDS011;19511;42.682;23.332;2022-12-18T02:40:28;1049.15;;;408.80;;
33154;SDS011;19511;42.682;23.332;2022-12-18T02:42:55;55.53;;;50.10;;
33154;SDS011;19511;42.682;23.332;2022-12-18T02:45:20;600.85;;;234.57;;
33154;SDS011;19511;42.682;23.332;2022-12-18T02:47:46;99.25;;;46.13;;
33154;SDS011;19511;42.682;23.332;2022-12-18T02:52:55;264.15;;;153.32;;
33154;SDS011;19511;42.682;23.332;2022-12-18T03:03:34;5.68;;;5.22;;
33154;SDS011;19511;42.682;23.332;2022-12-18T03:06:10;10.20;;;9.13;;
33154;SDS011;19511;42.682;23.332;2022-12-18T03:08:44;65.43;;;59.03;;
33154;SDS011;19511;42.682;23.332;2022-12-18T03:11:14;33.55;;;30.92;;
33154;SDS011;19511;42.682;23.332;2022-12-18T03:13:47;85.60;;;55.22;;
33154;SDS011;19511;42.682;23.332;2022-12-18T03:16:22;1330.65;;;463.02;;
33154;SDS011;19511;42.682;23.332;2022-12-18T03:21:54;996.75;;;421.55;;
33154;SDS011;19511;42.682;23.332;2022-12-18T03:24:22;16.05;;;9.82;;
33154;SDS011;19511;42.682;23.332;2022-12-18T03:26:52;445.63;;;346.75;;
33154;SDS011;19511;42.682;23.332;2022-12-18T03:29:24;1065.55;;;352.23;;
33154;SDS011;19511;42.682;23.332;2022-12-18T03:31:54;67.22;;;60.45;;
33154;SDS011;19511;42.682;23.332;2022-12-18T03:34:26;351.80;;;250.57;;
33154;SDS011;19511;42.682;23.332;2022-12-18T03:36:55;47.20;;;42.50;;
33154;SDS011;19511;42.682;23.332;2022-12-18T03:39:21;28.05;;;25.13;;
33154;SDS011;19511;42.682;23.332;2022-12-18T03:41:49;15.18;;;13.70;;
33154;SDS011;19511;42.682;23.332;2022-12-18T03:44:21;43.28;;;35.63;;
33154;SDS011;19511;42.682;23.332;2022-12-18T03:49:25;169.57;;;111.03;;
33154;SDS011;19511;42.682;23.332;2022-12-18T03:54:29;45.53;;;42.15;;
33154;SDS011;19511;42.682;23.332;2022-12-18T03:57:03;677.63;;;255.20;;
33154;SDS011;19511;42.682;23.332;2022-12-18T03:59:32;554.80;;;165.57;;
33154;SDS011;19511;42.682;23.332;2022-12-18T04:02:00;202.40;;;144.48;;
33154;SDS011;19511;42.682;23.332;2022-12-18T04:04:29;40.33;;;37.53;;
33154;SDS011;19511;42.682;23.332;2022-12-18T04:06:56;413.83;;;260.02;;
33154;SDS011;19511;42.682;23.332;2022-12-18T04:09:23;1439.35;;;555.25;;
33154;SDS011;19511;42.682;23.332;2022-12-18T04:11:50;327.67;;;263.73;;
33154;SDS011;19511;42.682;23.332;2022-12-18T04:14:16;968.17;;;414.83;;
33154;SDS011;19511;42.682;23.332;2022-12-18T04:16:42;139.18;;;128.73;;
33154;SDS011;19511;42.682;23.332;2022-12-18T04:19:07;1518.82;;;483.80;;
33154;SDS011;19511;42.682;23.332;2022-12-18T04:21:33;197.77;;;171.85;;
33154;SDS011;19511;42.682;23.332;2022-12-18T04:23:58;802.28;;;441.88;;
33154;SDS011;19511;42.682;23.332;2022-12-18T04:26:24;1221.53;;;351.08;;
33154;SDS011;19511;42.682;23.332;2022-12-18T04:28:49;143.75;;;131.10;;
33154;SDS011;19511;42.682;23.332;2022-12-18T04:31:14;1142.25;;;527.30;;
33154;SDS011;19511;42.682;23.332;2022-12-18T04:33:40;1288.95;;;442.50;;
33154;SDS011;19511;42.682;23.332;2022-12-18T04:36:05;399.55;;;250.15;;
33154;SDS011;19511;42.682;23.332;2022-12-18T04:38:31;240.18;;;221.30;;
33154;SDS011;19511;42.682;23.332;2022-12-18T04:40:57;1343.60;;;487.23;;
33154;SDS011;19511;42.682;23.332;2022-12-18T04:43:23;473.25;;;343.17;;
33154;SDS011;19511;42.682;23.332;2022-12-18T04:45:48;150.85;;;138.25;;
33154;SDS011;19511;42.682;23.332;2022-12-18T04:48:13;234.23;;;207.27;;
33154;SDS011;19511;42.682;23.332;2022-12-18T04:50:39;1005.60;;;558.75;;
33154;SDS011;19511;42.682;23.332;2022-12-18T04:53:04;985.03;;;538.70;;
33154;SDS011;19511;42.682;23.332;2022-12-18T04:55:30;548.55;;;309.88;;
33154;SDS011;19511;42.682;23.332;2022-12-18T04:57:55;1321.18;;;655.20;;
33154;SDS011;19511;42.682;23.332;2022-12-18T05:00:22;962.40;;;411.48;;
33154;SDS011;19511;42.682;23.332;2022-12-18T05:02:47;532.10;;;471.80;;
33154;SDS011;19511;42.682;23.332;2022-12-18T05:05:13;482.92;;;371.63;;
33154;SDS011;19511;42.682;23.332;2022-12-18T05:07:38;459.65;;;415.80;;
33154;SDS011;19511;42.682;23.332;2022-12-18T05:10:04;702.63;;;609.17;;
33154;SDS011;19511;42.682;23.332;2022-12-18T05:12:30;429.58;;;384.77;;
33154;SDS011;19511;42.682;23.332;2022-12-18T05:14:56;1278.63;;;757.33;;
33154;SDS011;19511;42.682;23.332;2022-12-18T05:17:21;923.97;;;657.97;;
33154;SDS011;19511;42.682;23.332;2022-12-18T05:19:47;624.33;;;493.48;;
33154;SDS011;19511;42.682;23.332;2022-12-18T05:22:12;756.65;;;620.13;;
33154;SDS011;19511;42.682;23.332;2022-12-18T05:24:38;990.97;;;707.55;;
33154;SDS011;19511;42.682;23.332;2022-12-18T05:27:03;723.95;;;650.70;;
33154;SDS011;19511;42.682;23.332;2022-12-18T05:29:28;1194.45;;;463.48;;
33154;SDS011;19511;42.682;23.332;2022-12-18T05:31:54;810.85;;;605.88;;
33154;SDS011;19511;42.682;23.332;2022-12-18T05:34:19;610.85;;;551.67;;
33154;SDS011;19511;42.682;23.332;2022-12-18T05:36:45;1488.18;;;760.78;;
33154;SDS011;19511;42.682;23.332;2022-12-18T05:39:10;571.90;;;514.72;;
33154;SDS011;19511;42.682;23.332;2022-12-18T05:41:36;741.63;;;527.38;;
33154;SDS011;19511;42.682;23.332;2022-12-18T05:44:01;983.67;;;736.53;;
33154;SDS011;19511;42.682;23.332;2022-12-18T05:46:26;837.80;;;751.25;;
33154;SDS011;19511;42.682;23.332;2022-12-18T05:48:52;1085.78;;;773.33;;
33154;SDS011;19511;42.682;23.332;2022-12-18T05:51:19;781.35;;;701.22;;
33154;SDS011;19511;42.682;23.332;2022-12-18T05:53:49;852.10;;;681.55;;
33154;SDS011;19511;42.682;23.332;2022-12-18T05:56:15;814.58;;;631.13;;
33154;SDS011;19511;42.682;23.332;2022-12-18T05:58:43;919.38;;;779.88;;
33154;SDS011;19511;42.682;23.332;2022-12-18T06:01:30;845.20;;;694.78;;
33154;SDS011;19511;42.682;23.332;2022-12-18T06:03:55;1089.35;;;555.47;;
33154;SDS011;19511;42.682;23.332;2022-12-18T06:06:22;894.25;;;531.58;;
33154;SDS011;19511;42.682;23.332;2022-12-18T06:08:50;884.80;;;784.92;;
33154;SDS011;19511;42.682;23.332;2022-12-18T06:11:17;1129.95;;;755.15;;
33154;SDS011;19511;42.682;23.332;2022-12-18T06:13:44;1197.60;;;723.00;;
33154;SDS011;19511;42.682;23.332;2022-12-18T06:16:10;838.85;;;621.72;;
33154;SDS011;19511;42.682;23.332;2022-12-18T06:18:35;800.50;;;726.95;;
33154;SDS011;19511;42.682;23.332;2022-12-18T06:21:03;698.20;;;642.25;;
33154;SDS011;19511;42.682;23.332;2022-12-18T06:23:29;493.00;;;452.23;;
33154;SDS011;19511;42.682;23.332;2022-12-18T06:25:57;1217.40;;;725.35;;
33154;SDS011;19511;42.682;23.332;2022-12-18T06:28:23;565.67;;;521.97;;
33154;SDS011;19511;42.682;23.332;2022-12-18T06:30:51;924.85;;;541.70;;
33154;SDS011;19511;42.682;23.332;2022-12-18T06:33:17;1073.68;;;770.55;;
33154;SDS011;19511;42.682;23.332;2022-12-18T06:35:43;668.03;;;614.53;;
33154;SDS011;19511;42.682;23.332;2022-12-18T06:38:08;684.85;;;628.20;;
33154;SDS011;19511;42.682;23.332;2022-12-18T06:40:34;808.15;;;698.83;;
33154;SDS011;19511;42.682;23.332;2022-12-18T06:43:03;1047.82;;;503.27;;
33154;SDS011;19511;42.682;23.332;2022-12-18T06:45:30;1064.97;;;542.58;;
33154;SDS011;19511;42.682;23.332;2022-12-18T06:47:56;747.08;;;674.58;;
33154;SDS011;19511;42.682;23.332;2022-12-18T06:50:24;854.55;;;774.65;;
33154;SDS011;19511;42.682;23.332;2022-12-18T06:52:49;838.03;;;376.65;;
33154;SDS011;19511;42.682;23.332;2022-12-18T06:55:14;779.92;;;713.13;;
33154;SDS011;19511;42.682;23.332;2022-12-18T06:57:40;1088.57;;;721.88;;
33154;SDS011;19511;42.682;23.332;2022-12-18T07:00:06;787.90;;;386.33;;
33154;SDS011;19511;42.682;23.332;2022-12-18T07:02:35;933.97;;;832.88;;
33154;SDS011;19511;42.682;23.332;2022-12-18T07:05:06;844.38;;;729.85;;
33154;SDS011;19511;42.682;23.332;2022-12-18T07:07:33;987.40;;;689.03;;
33154;SDS011;19511;42.682;23.332;2022-12-18T07:09:59;1532.72;;;882.65;;
33154;SDS011;19511;42.682;23.332;2022-12-18T07:12:27;1043.50;;;932.55;;
33154;SDS011;19511;42.682;23.332;2022-12-18T07:14:52;884.80;;;664.30;;
33154;SDS011;19511;42.682;23.332;2022-12-18T07:17:18;1221.50;;;751.67;;
33154;SDS011;19511;42.682;23.332;2022-12-18T07:19:43;1679.00;;;801.15;;
33154;SDS011;19511;42.682;23.332;2022-12-18T07:22:09;1684.45;;;832.53;;
33154;SDS011;19511;42.682;23.332;2022-12-18T07:24:34;768.70;;;471.67;;
33154;SDS011;19511;42.682;23.332;2022-12-18T07:27:00;1073.28;;;746.90;;
33154;SDS011;19511;42.682;23.332;2022-12-18T07:29:31;1028.50;;;698.08;;
33154;SDS011;19511;42.682;23.332;2022-12-18T07:31:56;767.28;;;486.00;;
33154;SDS011;19511;42.682;23.332;2022-12-18T07:34:22;733.55;;;359.20;;
33154;SDS011;19511;42.682;23.332;2022-12-18T07:36:47;976.70;;;721.88;;
33154;SDS011;19511;42.682;23.332;2022-12-18T07:39:15;1047.45;;;876.90;;
33154;SDS011;19511;42.682;23.332;2022-12-18T07:41:40;1032.40;;;801.00;;
33154;SDS011;19511;42.682;23.332;2022-12-18T07:44:11;1999.90;;;999.90;;
33154;SDS011;19511;42.682;23.332;2022-12-18T07:46:37;966.67;;;818.70;;
33154;SDS011;19511;42.682;23.332;2022-12-18T07:49:03;857.95;;;625.97;;
33154;SDS011;19511;42.682;23.332;2022-12-18T07:51:30;1999.90;;;999.90;;
33154;SDS011;19511;42.682;23.332;2022-12-18T07:53:56;772.97;;;485.70;;
33154;SDS011;19511;42.682;23.332;2022-12-18T07:56:22;924.47;;;425.63;;
33154;SDS011;19511;42.682;23.332;2022-12-18T07:58:47;423.60;;;268.67;;
33154;SDS011;19511;42.682;23.332;2022-12-18T08:01:13;735.47;;;582.10;;
33154;SDS011;19511;42.682;23.332;2022-12-18T08:03:39;1373.15;;;617.10;;
33154;SDS011;19511;42.682;23.332;2022-12-18T08:06:06;935.92;;;813.67;;
33154;SDS011;19511;42.682;23.332;2022-12-18T08:08:33;956.63;;;737.42;;
33154;SDS011;19511;42.682;23.332;2022-12-18T08:10:59;1334.55;;;647.88;;
33154;SDS011;19511;42.682;23.332;2022-12-18T08:13:25;1368.50;;;864.38;;
33154;SDS011;19511;42.682;23.332;2022-12-18T08:15:55;1613.65;;;806.40;;
33154;SDS011;19511;42.682;23.332;2022-12-18T08:18:24;1037.93;;;583.10;;
33154;SDS011;19511;42.682;23.332;2022-12-18T08:20:50;1041.57;;;865.45;;
33154;SDS011;19511;42.682;23.332;2022-12-18T08:23:16;927.78;;;672.72;;
33154;SDS011;19511;42.682;23.332;2022-12-18T08:25:41;1999.90;;;999.90;;
33154;SDS011;19511;42.682;23.332;2022-12-18T08:28:07;1036.63;;;873.03;;
33154;SDS011;19511;42.682;23.332;2022-12-18T08:30:32;1005.35;;;802.28;;
33154;SDS011;19511;42.682;23.332;2022-12-18T08:32:57;917.17;;;328.60;;
33154;SDS011;19511;42.682;23.332;2022-12-18T08:35:23;495.02;;;192.95;;
33154;SDS011;19511;42.682;23.332;2022-12-18T08:37:48;867.75;;;545.47;;
33154;SDS011;19511;42.682;23.332;2022-12-18T08:40:14;662.90;;;242.95;;
33154;SDS011;19511;42.682;23.332;2022-12-18T08:42:40;1600.88;;;813.63;;
33154;SDS011;19511;42.682;23.332;2022-12-18T08:45:24;787.63;;;670.97;;
33154;SDS011;19511;42.682;23.332;2022-12-18T08:47:49;1014.05;;;799.00;;
33154;SDS011;19511;42.682;23.332;2022-12-18T08:50:16;394.65;;;270.48;;
33154;SDS011;19511;42.682;23.332;2022-12-18T08:52:41;417.80;;;210.05;;
33154;SDS011;19511;42.682;23.332;2022-12-18T08:55:07;1016.10;;;823.38;;
33154;SDS011;19511;42.682;23.332;2022-12-18T08:57:33;666.10;;;451.75;;
33154;SDS011;19511;42.682;23.332;2022-12-18T08:59:59;805.60;;;616.30;;
33154;SDS011;19511;42.682;23.332;2022-12-18T09:02:24;520.40;;;264.42;;
33154;SDS011;19511;42.682;23.332;2022-12-18T09:04:56;1245.95;;;589.78;;
33154;SDS011;19511;42.682;23.332;2022-12-18T09:07:22;642.53;;;462.75;;
33154;SDS011;19511;42.682;23.332;2022-12-18T09:09:47;463.73;;;273.95;;
33154;SDS011;19511;42.682;23.332;2022-12-18T09:12:12;792.38;;;593.58;;
33154;SDS011;19511;42.682;23.332;2022-12-18T09:14:38;1999.90;;;999.90;;
33154;SDS011;19511;42.682;23.332;2022-12-18T09:17:03;288.13;;;158.75;;
33154;SDS011;19511;42.682;23.332;2022-12-18T09:19:29;320.30;;;254.70;;
33154;SDS011;19511;42.682;23.332;2022-12-18T09:21:54;1605.85;;;825.05;;
33154;SDS011;19511;42.682;23.332;2022-12-18T09:24:20;1999.90;;;999.90;;
33154;SDS011;19511;42.682;23.332;2022-12-18T09:26:47;380.38;;;260.90;;
33154;SDS011;19511;42.682;23.332;2022-12-18T09:29:14;1999.90;;;999.90;;
33154;SDS011;19511;42.682;23.332;2022-12-18T09:31:47;1999.90;;;999.90;;
33154;SDS011;19511;42.682;23.332;2022-12-18T09:34:12;1999.90;;;999.90;;
33154;SDS011;19511;42.682;23.332;2022-12-18T09:36:38;1062.55;;;529.13;;
33154;SDS011;19511;42.682;23.332;2022-12-18T09:39:03;1999.90;;;999.90;;
33154;SDS011;19511;42.682;23.332;2022-12-18T09:44:23;1999.90;;;999.90;;
33154;SDS011;19511;42.682;23.332;2022-12-18T09:46:51;1999.90;;;999.90;;
33154;SDS011;19511;42.682;23.332;2022-12-18T09:51:52;1519.72;;;762.55;;
33154;SDS011;19511;42.682;23.332;2022-12-18T09:54:26;1999.90;;;999.90;;
33154;SDS011;19511;42.682;23.332;2022-12-18T09:57:01;1999.90;;;999.90;;
33154;SDS011;19511;42.682;23.332;2022-12-18T09:59:29;1999.90;;;999.90;;
33154;SDS011;19511;42.682;23.332;2022-12-18T10:02:35;1999.90;;;999.90;;
33154;SDS011;19511;42.682;23.332;2022-12-18T10:05:05;1999.90;;;999.90;;
33154;SDS011;19511;42.682;23.332;2022-12-18T10:10:53;1999.90;;;999.90;;
33154;SDS011;19511;42.682;23.332;2022-12-18T10:13:42;1999.90;;;999.90;;
33154;SDS011;19511;42.682;23.332;2022-12-18T10:16:19;1999.90;;;999.90;;
33154;SDS011;19511;42.682;23.332;2022-12-18T10:27:09;1999.90;;;999.90;;
33154;SDS011;19511;42.682;23.332;2022-12-18T10:29:44;1999.90;;;999.90;;
33154;SDS011;19511;42.682;23.332;2022-12-18T10:32:18;1999.90;;;999.90;;
33154;SDS011;19511;42.682;23.332;2022-12-18T10:37:18;1999.90;;;999.90;;
33154;SDS011;19511;42.682;23.332;2022-12-18T10:42:40;1999.90;;;999.90;;
33154;SDS011;19511;42.682;23.332;2022-12-18T10:45:11;1999.90;;;999.90;;
33154;SDS011;19511;42.682;23.332;2022-12-18T10:47:43;1999.90;;;999.90;;
33154;SDS011;19511;42.682;23.332;2022-12-18T10:53:13;1999.90;;;999.90;;
33154;SDS011;19511;42.682;23.332;2022-12-18T10:55:45;1999.90;;;999.90;;
33154;SDS011;19511;42.682;23.332;2022-12-18T11:03:41;1999.90;;;999.90;;
33154;SDS011;19511;42.682;23.332;2022-12-18T11:08:33;1999.90;;;999.90;;
33154;SDS011;19511;42.682;23.332;2022-12-18T11:10:59;1999.90;;;999.90;;
33154;SDS011;19511;42.682;23.332;2022-12-18T11:13:26;1999.90;;;999.90;;
33154;SDS011;19511;42.682;23.332;2022-12-18T11:15:54;1999.90;;;999.90;;
33154;SDS011;19511;42.682;23.332;2022-12-18T11:18:24;1999.90;;;999.90;;
33154;SDS011;19511;42.682;23.332;2022-12-18T11:21:13;1999.90;;;999.90;;
33154;SDS011;19511;42.682;23.332;2022-12-18T11:23:44;1999.90;;;999.90;;
33154;SDS011;19511;42.682;23.332;2022-12-18T11:26:11;1999.90;;;999.90;;
33154;SDS011;19511;42.682;23.332;2022-12-18T11:33:41;1999.90;;;999.90;;
33154;SDS011;19511;42.682;23.332;2022-12-18T11:36:10;1999.90;;;999.90;;
33154;SDS011;19511;42.682;23.332;2022-12-18T11:38:40;1999.90;;;999.90;;
33154;SDS011;19511;42.682;23.332;2022-12-18T11:41:15;1999.90;;;999.90;;
33154;SDS011;19511;42.682;23.332;2022-12-18T11:44:20;1999.90;;;999.90;;
33154;SDS011;19511;42.682;23.332;2022-12-18T11:46:51;1999.90;;;999.90;;
33154;SDS011;19511;42.682;23.332;2022-12-18T11:49:25;1999.90;;;999.90;;
33154;SDS011;19511;42.682;23.332;2022-12-18T11:54:55;1999.90;;;999.90;;
33154;SDS011;19511;42.682;23.332;2022-12-18T11:57:39;1999.90;;;999.90;;
33154;SDS011;19511;42.682;23.332;2022-12-18T12:03:08;1999.90;;;999.90;;
33154;SDS011;19511;42.682;23.332;2022-12-18T12:09:15;1999.90;;;999.90;;
33154;SDS011;19511;42.682;23.332;2022-12-18T12:34:00;1999.90;;;999.90;;
33154;SDS011;19511;42.682;23.332;2022-12-18T12:39:42;1999.90;;;999.90;;
33154;SDS011;19511;42.682;23.332;2022-12-18T12:45:15;1999.90;;;999.90;;
33154;SDS011;19511;42.682;23.332;2022-12-18T12:48:13;1999.90;;;999.90;;
33154;SDS011;19511;42.682;23.332;2022-12-18T12:50:49;1999.90;;;999.90;;
33154;SDS011;19511;42.682;23.332;2022-12-18T12:53:24;1999.90;;;999.90;;
33154;SDS011;19511;42.682;23.332;2022-12-18T12:55:54;1999.90;;;999.90;;
33154;SDS011;19511;42.682;23.332;2022-12-18T13:01:13;1999.90;;;999.90;;
33154;SDS011;19511;42.682;23.332;2022-12-18T13:09:04;1999.90;;;999.90;;
33154;SDS011;19511;42.682;23.332;2022-12-18T13:19:52;1999.90;;;999.90;;
33154;SDS011;19511;42.682;23.332;2022-12-18T13:22:45;1999.90;;;999.90;;
33154;SDS011;19511;42.682;23.332;2022-12-18T13:25:29;1999.90;;;999.90;;
33154;SDS011;19511;42.682;23.332;2022-12-18T13:28:04;1999.90;;;999.90;;
33154;SDS011;19511;42.682;23.332;2022-12-18T13:38:21;1999.90;;;999.90;;
33154;SDS011;19511;42.682;23.332;2022-12-18T13:40:59;1999.90;;;999.90;;
33154;SDS011;19511;42.682;23.332;2022-12-18T13:46:17;1999.90;;;999.90;;
33154;SDS011;19511;42.682;23.332;2022-12-18T13:51:21;1999.90;;;999.90;;
33154;SDS011;19511;42.682;23.332;2022-12-18T13:53:49;1999.90;;;999.90;;
33154;SDS011;19511;42.682;23.332;2022-12-18T13:56:25;1999.90;;;999.90;;
33154;SDS011;19511;42.682;23.332;2022-12-18T14:01:47;1999.90;;;999.90;;
33154;SDS011;19511;42.682;23.332;2022-12-18T14:04:47;1999.90;;;999.90;;
33154;SDS011;19511;42.682;23.332;2022-12-18T14:09:58;1999.90;;;999.90;;
33154;SDS011;19511;42.682;23.332;2022-12-18T14:12:32;1999.90;;;999.90;;
33154;SDS011;19511;42.682;23.332;2022-12-18T14:17:54;1999.90;;;999.90;;
33154;SDS011;19511;42.682;23.332;2022-12-18T14:20:24;1999.90;;;999.90;;
33154;SDS011;19511;42.682;23.332;2022-12-18T14:22:51;1999.90;;;999.90;;
33154;SDS011;19511;42.682;23.332;2022-12-18T14:25:18;1999.90;;;999.90;;
33154;SDS011;19511;42.682;23.332;2022-12-18T14:30:35;1999.90;;;999.90;;
33154;SDS011;19511;42.682;23.332;2022-12-18T14:33:04;1999.90;;;999.90;;
33154;SDS011;19511;42.682;23.332;2022-12-18T14:38:33;1999.90;;;999.90;;
33154;SDS011;19511;42.682;23.332;2022-12-18T14:41:03;1999.90;;;999.90;;
33154;SDS011;19511;42.682;23.332;2022-12-18T14:43:34;1999.90;;;999.90;;
33154;SDS011;19511;42.682;23.332;2022-12-18T14:46:01;1999.90;;;999.90;;
33154;SDS011;19511;42.682;23.332;2022-12-18T14:48:48;1999.90;;;999.90;;
33154;SDS011;19511;42.682;23.332;2022-12-18T14:51:20;1999.90;;;999.90;;
33154;SDS011;19511;42.682;23.332;2022-12-18T14:53:57;1999.90;;;999.90;;
33154;SDS011;19511;42.682;23.332;2022-12-18T14:56:35;1999.90;;;999.90;;
33154;SDS011;19511;42.682;23.332;2022-12-18T14:59:17;1999.90;;;999.90;;
33154;SDS011;19511;42.682;23.332;2022-12-18T15:04:47;1999.90;;;999.90;;
33154;SDS011;19511;42.682;23.332;2022-12-18T15:07:24;1999.90;;;999.90;;
33154;SDS011;19511;42.682;23.332;2022-12-18T15:17:58;1999.90;;;999.90;;
33154;SDS011;19511;42.682;23.332;2022-12-18T15:20:42;1999.90;;;999.90;;
33154;SDS011;19511;42.682;23.332;2022-12-18T15:25:43;1999.90;;;999.90;;
33154;SDS011;19511;42.682;23.332;2022-12-18T15:31:23;1999.90;;;999.90;;
33154;SDS011;19511;42.682;23.332;2022-12-18T15:36:22;1999.90;;;999.90;;
33154;SDS011;19511;42.682;23.332;2022-12-18T15:39:01;1999.90;;;999.90;;
33154;SDS011;19511;42.682;23.332;2022-12-18T15:41:28;1999.90;;;999.90;;
33154;SDS011;19511;42.682;23.332;2022-12-18T15:44:17;1999.90;;;999.90;;
33154;SDS011;19511;42.682;23.332;2022-12-18T15:46:48;1999.90;;;999.90;;
33154;SDS011;19511;42.682;23.332;2022-12-18T15:49:15;1999.90;;;999.90;;
33154;SDS011;19511;42.682;23.332;2022-12-18T15:51:43;1999.90;;;999.90;;
33154;SDS011;19511;42.682;23.332;2022-12-18T15:54:10;1999.90;;;999.90;;
33154;SDS011;19511;42.682;23.332;2022-12-18T15:57:03;1999.90;;;999.90;;
33154;SDS011;19511;42.682;23.332;2022-12-18T15:59:52;1999.90;;;999.90;;
33154;SDS011;19511;42.682;23.332;2022-12-18T16:02:21;1999.90;;;999.90;;
33154;SDS011;19511;42.682;23.332;2022-12-18T16:04:53;1999.90;;;999.90;;
33154;SDS011;19511;42.682;23.332;2022-12-18T16:07:24;1999.90;;;999.90;;
33154;SDS011;19511;42.682;23.332;2022-12-18T16:09:52;1999.90;;;999.90;;
33154;SDS011;19511;42.682;23.332;2022-12-18T16:12:25;1999.90;;;999.90;;
33154;SDS011;19511;42.682;23.332;2022-12-18T16:14:51;1999.90;;;999.90;;
33154;SDS011;19511;42.682;23.332;2022-12-18T16:17:19;1999.90;;;999.90;;
33154;SDS011;19511;42.682;23.332;2022-12-18T16:19:45;1999.90;;;999.90;;
33154;SDS011;19511;42.682;23.332;2022-12-18T16:22:21;1999.90;;;999.90;;
33154;SDS011;19511;42.682;23.332;2022-12-18T16:24:52;1999.90;;;999.90;;
33154;SDS011;19511;42.682;23.332;2022-12-18T16:27:18;1999.90;;;999.90;;
33154;SDS011;19511;42.682;23.332;2022-12-18T16:29:45;1999.90;;;999.90;;
33154;SDS011;19511;42.682;23.332;2022-12-18T16:32:12;1999.90;;;999.90;;
33154;SDS011;19511;42.682;23.332;2022-12-18T16:34:40;1999.90;;;999.90;;
33154;SDS011;19511;42.682;23.332;2022-12-18T16:37:10;1999.90;;;999.90;;
33154;SDS011;19511;42.682;23.332;2022-12-18T16:39:37;1999.90;;;999.90;;